Time;durP1;ratioP1;P1;durP2;ratioP2;P2;SDS_P1;SDS_P2;PMS_P1;PMS_P2;Temp;Humidity;BMP_temperature;BMP_pressure;BME280_temperature;BME280_humidity;BME280_pressure;Samples;Min_cycle;Max_cycle;Signal;HPM_P1;HPM_P2
2022/11/21 04:03:04;;;;;;;;;;;5.80;99.90;;;;;;5026119;28;19932;-69
2022/11/21 04:05:31;;;;;;;;;;;5.80;99.90;;;;;;5014837;28;20457;-69
2022/11/21 04:07:58;;;;;;;;;;;5.70;99.90;;;;;;5031508;28;19970;-68
2022/11/21 04:10:24;;;;;;;;;;;5.70;99.90;;;;;;5015097;28;20450;-68
2022/11/21 04:12:51;;;;;;;;;;;5.70;99.90;;;;;;5008671;28;19972;-68
2022/11/21 04:15:17;;;;;;;;;;;5.60;99.90;;;;;;5028942;28;20024;-68
2022/11/21 04:17:44;;;;;;;;;;;5.70;99.90;;;;;;5028417;28;20024;-68
2022/11/21 04:20:12;;;;;;;;;;;5.60;99.90;;;;;;5013869;28;19925;-67
2022/11/21 04:22:39;;;;;;;;;;;5.60;99.90;;;;;;5024209;28;19932;-68
2022/11/21 04:25:06;;;;;;;;;;;5.60;99.90;;;;;;5012065;28;19992;-68
2022/11/21 04:27:33;;;;;;;;;;;5.70;99.90;;;;;;5006771;28;20458;-66
2022/11/21 04:29:59;;;;;;;;;;;5.70;99.90;;;;;;5013761;28;19975;-68
2022/11/21 04:32:26;;;;;;;;;;;5.80;99.90;;;;;;5012060;28;20032;-68
2022/11/21 04:34:53;;;;;;;;;;;5.80;99.90;;;;;;5012248;28;19933;-67
2022/11/21 04:37:21;;;;;;;;;;;5.70;99.90;;;;;;5014950;28;19925;-68
2022/11/21 04:39:48;;;;;;;;;;;5.70;99.90;;;;;;5011839;28;20331;-68
2022/11/21 04:42:14;;;;;;;;;;;5.70;99.90;;;;;;5014417;28;19979;-68
2022/11/21 04:44:41;;;;;;;;;;;5.70;99.90;;;;;;5004558;28;19925;-67
2022/11/21 04:47:08;;;;;;;;;;;5.70;99.90;;;;;;5014773;28;19933;-68
2022/11/21 04:49:35;;;;;;;;;;;5.70;99.90;;;;;;5013013;28;20459;-68
2022/11/21 04:52:01;;;;;;;;;;;5.70;99.90;;;;;;5012638;28;20446;-68
2022/11/21 04:54:30;;;;;;;;;;;5.70;99.90;;;;;;5013570;28;19929;-68
2022/11/21 04:56:57;;;;;;;;;;;5.60;99.90;;;;;;5013470;28;19972;-68
2022/11/21 04:59:23;;;;;;;;;;;5.60;99.90;;;;;;5017944;28;19932;-68
2022/11/21 05:01:50;;;;;;;;;;;5.70;99.90;;;;;;5012949;28;19925;-67
2022/11/21 05:04:17;;;;;;;;;;;5.70;99.90;;;;;;5014188;28;19925;-67
2022/11/21 05:06:43;;;;;;;;;;;5.70;99.90;;;;;;5012192;28;19984;-68
2022/11/21 05:09:10;;;;;;;;;;;5.70;99.90;;;;;;5007611;28;20346;-68
2022/11/21 05:14:24;;;;;;;;;;;5.70;99.90;;;;;;5012014;28;19925;-68
2022/11/21 05:16:51;;;;;;;;;;;5.80;99.90;;;;;;5010766;28;19926;-68
2022/11/21 05:19:18;;;;;;;;;;;5.80;99.90;;;;;;5001770;28;19932;-68
2022/11/21 05:21:45;;;;;;;;;;;5.80;99.90;;;;;;5012562;28;19926;-68
2022/11/21 05:24:12;;;;;;;;;;;5.80;99.90;;;;;;5006671;28;20392;-68
2022/11/21 05:26:40;;;;;;;;;;;5.80;99.90;;;;;;5028303;28;19940;-68
2022/11/21 05:29:07;;;;;;;;;;;5.70;99.90;;;;;;5012276;28;19925;-68
2022/11/21 05:31:33;;;;;;;;;;;5.60;99.90;;;;;;5011404;28;19929;-65
2022/11/21 05:34:00;;;;;;;;;;;5.50;99.90;;;;;;5010459;28;19933;-68
2022/11/21 05:36:27;;;;;;;;;;;5.30;99.90;;;;;;5010771;28;19932;-68
2022/11/21 05:38:54;;;;;;;;;;;5.20;99.90;;;;;;5010085;28;19925;-68
2022/11/21 05:41:20;;;;;;;;;;;5.30;99.90;;;;;;5011601;28;19932;-73
2022/11/21 05:43:48;;;;;;;;;;;5.30;99.90;;;;;;5004696;28;20366;-71
2022/11/21 05:46:16;;;;;;;;;;;5.30;99.90;;;;;;5012487;28;20300;-71
2022/11/21 05:48:43;;;;;;;;;;;5.40;99.90;;;;;;5009945;28;19979;-74
2022/11/21 05:51:10;;;;;;;;;;;5.50;99.90;;;;;;5011651;28;19928;-72
2022/11/21 05:53:37;;;;;;;;;;;5.50;99.90;;;;;;5005280;28;19925;-73
2022/11/21 05:56:05;;;;;;;;;;;5.50;99.90;;;;;;5006228;28;19925;-70
2022/11/21 05:58:32;;;;;;;;;;;5.40;99.90;;;;;;5006293;28;19929;-69
2022/11/21 06:01:00;;;;;;;;;;;5.40;99.90;;;;;;5015732;28;19933;-69
2022/11/21 06:03:29;;;;;;;;;;;5.30;99.90;;;;;;5004624;28;19932;-71
2022/11/21 06:06:00;;;;;;;;;;;5.40;99.90;;;;;;5011163;28;19921;-69
2022/11/21 06:08:27;;;;;;;;;;;5.40;99.90;;;;;;5006629;28;19931;-69
2022/11/21 06:10:54;;;;;;;;;;;5.40;99.90;;;;;;5004789;28;19955;-69
2022/11/21 06:13:23;;;;;;;;;;;5.40;99.90;;;;;;5006205;28;19929;-69
2022/11/21 06:15:51;;;;;;;;;;;5.40;99.90;;;;;;5015491;28;19925;-69
2022/11/21 06:18:19;;;;;;;;;;;5.40;99.90;;;;;;5006032;28;19933;-68
2022/11/21 06:20:46;;;;;;;;;;;5.40;99.90;;;;;;5009671;28;20059;-69
2022/11/21 06:23:13;;;;;;;;;;;5.40;99.90;;;;;;5013013;28;19929;-69
2022/11/21 06:25:40;;;;;;;;;;;5.50;99.90;;;;;;5016299;28;19991;-69
2022/11/21 06:28:07;;;;;;;;;;;5.50;99.90;;;;;;5012489;28;19975;-69
2022/11/21 06:30:33;;;;;;;;;;;5.60;99.90;;;;;;5011644;28;19925;-68
2022/11/21 06:33:02;;;;;;;;;;;5.60;99.90;;;;;;5010487;28;19925;-68
2022/11/21 06:35:30;;;;;;;;;;;5.70;99.90;;;;;;5012589;28;19929;-68
2022/11/21 06:37:57;;;;;;;;;;;5.70;99.90;;;;;;5012600;28;19925;-67
2022/11/21 06:40:24;;;;;;;;;;;5.80;99.90;;;;;;5011775;28;20023;-69
2022/11/21 06:42:51;;;;;;;;;;;5.80;99.90;;;;;;5012533;28;19933;-69
2022/11/21 06:45:18;;;;;;;;;;;5.80;99.90;;;;;;5008323;28;19929;-68
2022/11/21 06:47:45;;;;;;;;;;;5.90;99.90;;;;;;5004069;28;19928;-68
2022/11/21 06:50:11;;;;;;;;;;;5.90;99.90;;;;;;5011672;28;19937;-68
2022/11/21 06:52:40;;;;;;;;;;;5.90;99.90;;;;;;5010224;28;19929;-69
2022/11/21 06:55:07;;;;;;;;;;;6.00;99.90;;;;;;5008151;28;19979;-66
2022/11/21 06:57:34;;;;;;;;;;;6.00;99.90;;;;;;5004971;28;19964;-68
2022/11/21 07:00:01;;;;;;;;;;;6.00;99.90;;;;;;5013228;28;19925;-68
2022/11/21 07:02:28;;;;;;;;;;;6.00;99.90;;;;;;5004814;28;19936;-68
2022/11/21 07:04:54;;;;;;;;;;;6.00;99.90;;;;;;5003775;28;19948;-69
2022/11/21 07:07:21;;;;;;;;;;;6.00;99.90;;;;;;5012138;28;19929;-69
2022/11/21 07:09:49;;;;;;;;;;;6.00;99.90;;;;;;5012056;28;19970;-68
2022/11/21 07:15:00;;;;;;;;;;;6.00;99.90;;;;;;5023679;28;19932;-68
2022/11/21 07:17:27;;;;;;;;;;;6.00;99.90;;;;;;5010733;28;19925;-68
2022/11/21 07:19:54;;;;;;;;;;;6.00;99.90;;;;;;5012373;28;19952;-68
2022/11/21 07:22:21;;;;;;;;;;;6.00;99.90;;;;;;5009968;28;19929;-68
2022/11/21 07:24:47;;;;;;;;;;;6.00;99.90;;;;;;5013093;28;19933;-68
2022/11/21 07:27:16;;;;;;;;;;;6.00;99.90;;;;;;5009091;28;19932;-69
2022/11/21 07:29:42;;;;;;;;;;;6.00;99.90;;;;;;5023947;28;19925;-68
2022/11/21 07:32:09;;;;;;;;;;;6.00;99.90;;;;;;5014056;28;19979;-69
2022/11/21 07:34:36;;;;;;;;;;;6.00;99.90;;;;;;5014371;28;19939;-68
2022/11/21 07:37:03;;;;;;;;;;;6.10;99.90;;;;;;5011015;28;19929;-68
2022/11/21 07:39:29;;;;;;;;;;;6.10;99.90;;;;;;5012147;28;20412;-68
2022/11/21 07:41:56;;;;;;;;;;;6.20;99.90;;;;;;5015430;28;19925;-69
2022/11/21 07:44:24;;;;;;;;;;;6.20;99.90;;;;;;5011632;28;19925;-69
2022/11/21 07:46:53;;;;;;;;;;;6.20;99.90;;;;;;5015269;28;19925;-69
2022/11/21 07:49:20;;;;;;;;;;;6.20;99.90;;;;;;5011138;28;19930;-68
2022/11/21 07:51:47;;;;;;;;;;;6.20;99.90;;;;;;5012987;28;19979;-68
2022/11/21 07:54:14;;;;;;;;;;;6.20;99.90;;;;;;5012446;28;19933;-68
2022/11/21 07:56:40;;;;;;;;;;;6.20;99.90;;;;;;5015173;28;19929;-68
2022/11/21 07:59:07;;;;;;;;;;;6.20;99.90;;;;;;5015026;28;20359;-69
2022/11/21 08:01:35;;;;;;;;;;;6.20;99.90;;;;;;5013058;28;19937;-67
2022/11/21 08:04:02;;;;;;;;;;;6.20;99.90;;;;;;5015051;28;19932;-68
2022/11/21 08:06:29;;;;;;;;;;;6.20;99.90;;;;;;5013888;28;19925;-68
2022/11/21 08:08:55;;;;;;;;;;;6.20;99.90;;;;;;5014869;28;19929;-68
2022/11/21 08:11:22;;;;;;;;;;;6.20;99.90;;;;;;5011094;28;19933;-68
2022/11/21 08:13:50;;;;;;;;;;;6.20;99.90;;;;;;5013116;28;19925;-68
2022/11/21 08:16:16;;;;;;;;;;;6.30;99.90;;;;;;5015264;28;20466;-68
2022/11/21 08:18:45;;;;;;;;;;;6.30;99.90;;;;;;5012674;28;19925;-66
2022/11/21 08:21:11;;;;;;;;;;;6.30;99.90;;;;;;5010764;28;19925;-68
2022/11/21 08:23:38;;;;;;;;;;;6.30;99.90;;;;;;5011963;28;19925;-66
2022/11/21 08:26:08;;;;;;;;;;;6.30;99.90;;;;;;5013467;28;19925;-69
2022/11/21 08:28:35;;;;;;;;;;;6.40;99.90;;;;;;5013541;28;20705;-68
2022/11/21 08:31:03;;;;;;;;;;;6.40;99.90;;;;;;5021290;28;19925;-68
2022/11/21 08:33:30;;;;;;;;;;;6.50;99.90;;;;;;5013572;28;20392;-68
2022/11/21 08:35:58;;;;;;;;;;;6.60;99.90;;;;;;5004696;28;19976;-68
2022/11/21 08:38:25;;;;;;;;;;;6.70;99.90;;;;;;5012392;28;20352;-70
2022/11/21 08:42:01;;;;;;;;;;;6.70;99.90;;;;;;5012633;28;20008;-69
2022/11/21 08:43:38;;;;;;;;;;;6.60;99.90;;;;;;5004410;28;19925;-69
2022/11/21 08:46:05;;;;;;;;;;;6.60;99.90;;;;;;5011296;28;19932;-69
2022/11/21 08:48:32;;;;;;;;;;;6.50;99.90;;;;;;5011903;28;19953;-69
2022/11/21 08:51:00;;;;;;;;;;;6.50;99.90;;;;;;5010864;28;19934;-69
2022/11/21 08:53:27;;;;;;;;;;;6.50;99.90;;;;;;5011876;28;19926;-69
2022/11/21 08:55:54;;;;;;;;;;;6.50;99.90;;;;;;5011115;28;20367;-69
2022/11/21 08:58:21;;;;;;;;;;;6.50;99.90;;;;;;5012076;28;19983;-68
2022/11/21 09:00:47;;;;;;;;;;;6.60;99.90;;;;;;5011814;28;19933;-68
2022/11/21 09:03:14;;;;;;;;;;;6.70;99.90;;;;;;5009247;28;19925;-68
2022/11/21 09:05:41;;;;;;;;;;;6.80;99.90;;;;;;5011922;28;19929;-70
2022/11/21 09:08:09;;;;;;;;;;;6.90;99.90;;;;;;5010890;28;19929;-68
2022/11/21 09:10:36;;;;;;;;;;;6.90;99.90;;;;;;5012351;28;19979;-68
2022/11/21 09:13:03;;;;;;;;;;;6.90;99.90;;;;;;5010147;28;20297;-69
2022/11/21 09:18:14;;;;;;;;;;;7.00;99.90;;;;;;5007658;28;20061;-69
2022/11/21 09:20:41;;;;;;;;;;;7.00;99.90;;;;;;5007913;28;19933;-68
2022/11/21 09:23:11;;;;;;;;;;;7.00;99.90;;;;;;5007819;28;19932;-69
2022/11/21 09:25:38;;;;;;;;;;;7.10;99.90;;;;;;5012019;28;19929;-70
2022/11/21 09:28:06;;;;;;;;;;;7.20;99.90;;;;;;5012926;28;19940;-69
2022/11/21 09:30:33;;;;;;;;;;;7.30;99.90;;;;;;5012420;28;20334;-69
2022/11/21 09:33:01;;;;;;;;;;;7.40;99.90;;;;;;5012821;28;19929;-68
2022/11/21 09:35:27;;;;;;;;;;;7.50;99.90;;;;;;5013653;28;19964;-69
2022/11/21 09:37:54;;;;;;;;;;;7.60;99.90;;;;;;5010296;28;19925;-68
2022/11/21 09:40:23;;;;;;;;;;;7.70;99.90;;;;;;5012853;28;19955;-69
2022/11/21 09:42:57;;;;;;;;;;;7.80;99.90;;;;;;5012888;28;19929;-69
2022/11/21 09:45:26;;;;;;;;;;;8.00;99.90;;;;;;5011712;28;19929;-68
2022/11/21 09:47:53;;;;;;;;;;;8.10;99.90;;;;;;5013419;28;19931;-69
2022/11/21 09:50:26;;;;;;;;;;;8.20;99.90;;;;;;5012860;28;20288;-69
2022/11/21 09:52:56;;;;;;;;;;;8.30;99.90;;;;;;5001818;28;19925;-69
2022/11/21 09:55:27;;;;;;;;;;;8.20;99.90;;;;;;5012937;28;19975;-68
2022/11/21 09:57:55;;;;;;;;;;;8.30;99.90;;;;;;5003325;28;20454;-69
2022/11/21 10:00:22;;;;;;;;;;;8.30;99.90;;;;;;5011012;28;20346;-69
2022/11/21 10:02:49;;;;;;;;;;;8.40;99.90;;;;;;5009298;28;19925;-69
2022/11/21 10:05:16;;;;;;;;;;;8.60;99.90;;;;;;5007608;28;19929;-69
2022/11/21 10:07:44;;;;;;;;;;;8.70;99.90;;;;;;5001708;28;20372;-69
2022/11/21 10:10:19;;;;;;;;;;;8.80;99.90;;;;;;5010258;28;19936;-69
2022/11/21 10:12:54;;;;;;;;;;;9.00;99.90;;;;;;5009445;28;19937;-68
2022/11/21 10:15:29;;;;;;;;;;;9.30;99.90;;;;;;5010733;28;19925;-68
2022/11/21 10:18:06;;;;;;;;;;;12.80;99.90;;;;;;5004450;28;19933;-69
2022/11/21 10:20:43;;;;;;;;;;;14.10;99.90;;;;;;5009845;28;19929;-68
2022/11/21 10:23:25;;;;;;;;;;;15.10;99.90;;;;;;5004363;28;20479;-68
2022/11/21 10:25:56;;;;;;;;;;;16.60;99.90;;;;;;5024686;28;19940;-69
2022/11/21 10:28:28;;;;;;;;;;;18.70;99.90;;;;;;5006398;28;19925;-68
2022/11/21 10:30:55;;;;;;;;;;;20.30;99.90;;;;;;5004940;28;19925;-69
2022/11/21 10:33:26;;;;;;;;;;;20.80;99.90;;;;;;5004356;28;19926;-70
2022/11/21 10:35:55;;;;;;;;;;;21.00;99.90;;;;;;5007786;28;20048;-70
2022/11/21 10:38:23;;;;;;;;;;;20.90;99.90;;;;;;5007638;28;19933;-70
2022/11/21 10:40:51;;;;;;;;;;;20.80;99.90;;;;;;5011032;28;19925;-70
2022/11/21 10:46:09;;;;;;;;;;;21.40;99.90;;;;;;5004651;28;20040;-70
2022/11/21 10:48:36;;;;;;;;;;;23.40;99.90;;;;;;5011128;28;19926;-70
2022/11/21 10:51:08;;;;;;;;;;;23.40;99.90;;;;;;5011380;28;20391;-70
2022/11/21 10:56:21;;;;;;;;;;;21.50;99.90;;;;;;5016252;28;19960;-69
2022/11/21 10:58:48;;;;;;;;;;;22.20;99.90;;;;;;5014954;28;20003;-70
2022/11/21 11:01:22;;;;;;;;;;;23.50;99.90;;;;;;5016467;28;19971;-70
2022/11/21 11:04:04;;;;;;;;;;;24.50;99.90;;;;;;5006815;28;19937;-71
2022/11/21 11:06:30;;;;;;;;;;;23.90;99.90;;;;;;5015841;28;19925;-71
2022/11/21 11:08:57;;;;;;;;;;;24.20;99.90;;;;;;5015927;28;19925;-70
2022/11/21 11:11:25;;;;;;;;;;;23.00;99.90;;;;;;5008209;28;19964;-70
2022/11/21 11:13:54;;;;;;;;;;;22.20;99.90;;;;;;5018887;28;19933;-70
2022/11/21 11:16:24;;;;;;;;;;;20.20;99.90;;;;;;5008619;28;19965;-70
2022/11/21 11:18:54;;;;;;;;;;;21.10;99.90;;;;;;5011293;28;20017;-71
2022/11/21 11:21:21;;;;;;;;;;;22.60;99.90;;;;;;5010139;28;19926;-70
2022/11/21 11:23:49;;;;;;;;;;;22.80;99.90;;;;;;5012482;28;20440;-70
2022/11/21 11:26:20;;;;;;;;;;;19.90;99.90;;;;;;5012693;28;19925;-70
2022/11/21 11:28:47;;;;;;;;;;;20.80;99.90;;;;;;5013086;28;20284;-71
2022/11/21 11:31:14;;;;;;;;;;;20.10;99.90;;;;;;5012356;28;19929;-69
2022/11/21 11:33:49;;;;;;;;;;;20.50;99.90;;;;;;5013748;28;19925;-70
2022/11/21 11:36:21;;;;;;;;;;;20.50;99.90;;;;;;5012630;28;19941;-70
2022/11/21 11:38:52;;;;;;;;;;;22.30;99.90;;;;;;5014111;28;19925;-70
2022/11/21 11:41:26;;;;;;;;;;;21.50;99.90;;;;;;5013802;28;19925;-70
2022/11/21 11:50:09;;;;;;;;;;;18.50;99.90;;;;;;5013257;28;19944;-71
2022/11/21 11:52:27;;;;;;;;;;;19.10;99.90;;;;;;5005683;28;19932;-71
2022/11/21 11:54:58;;;;;;;;;;;18.60;99.90;;;;;;5025564;28;19975;-71
2022/11/21 11:57:26;;;;;;;;;;;19.30;99.90;;;;;;5007635;28;19926;-70
2022/11/21 11:59:59;;;;;;;;;;;18.70;99.90;;;;;;5013746;28;19929;-70
2022/11/21 12:02:29;;;;;;;;;;;18.40;99.90;;;;;;5012065;28;19925;-70
2022/11/21 12:05:00;;;;;;;;;;;19.30;99.90;;;;;;5005362;28;19930;-70
2022/11/21 12:07:31;;;;;;;;;;;21.00;99.90;;;;;;5013306;28;19932;-70
2022/11/21 12:10:03;;;;;;;;;;;21.30;99.90;;;;;;5001243;28;20339;-70
2022/11/21 12:12:35;;;;;;;;;;;21.90;99.90;;;;;;5000791;28;19926;-70
2022/11/21 12:17:57;;;;;;;;;;;19.00;99.90;;;;;;5010967;28;19928;-69
2022/11/21 12:20:28;;;;;;;;;;;19.30;99.90;;;;;;5012417;28;19980;-69
2022/11/21 12:22:55;;;;;;;;;;;18.40;99.90;;;;;;5010031;28;19932;-70
2022/11/21 12:25:25;;;;;;;;;;;17.90;99.90;;;;;;5014802;28;20388;-70
2022/11/21 12:27:53;;;;;;;;;;;18.60;99.90;;;;;;5013604;28;19932;-71
2022/11/21 12:30:25;;;;;;;;;;;19.20;99.90;;;;;;5012307;28;19929;-71
2022/11/21 12:32:55;;;;;;;;;;;18.90;99.90;;;;;;5011001;28;19939;-70
2022/11/21 12:35:33;;;;;;;;;;;19.50;99.90;;;;;;5014718;28;19925;-70
2022/11/21 12:38:04;;;;;;;;;;;18.70;99.90;;;;;;5008981;28;19925;-70
2022/11/21 12:40:41;;;;;;;;;;;18.70;99.90;;;;;;5001362;28;19925;-70
2022/11/21 12:43:16;;;;;;;;;;;18.50;99.90;;;;;;5011189;28;19932;-70
2022/11/21 12:45:46;;;;;;;;;;;17.60;99.90;;;;;;5012165;28;20095;-70
2022/11/21 12:56:56;;;;;;;;;;;15.30;99.90;;;;;;5013988;28;20063;-71
2022/11/21 12:59:23;;;;;;;;;;;15.10;99.90;;;;;;5011798;28;19929;-70
2022/11/21 13:01:56;;;;;;;;;;;14.70;99.90;;;;;;5008967;28;19980;-71
2022/11/21 13:04:25;;;;;;;;;;;14.10;99.90;;;;;;5013938;28;19929;-70
2022/11/21 13:06:54;;;;;;;;;;;13.30;99.90;;;;;;5012772;28;19932;-69
2022/11/21 13:09:21;;;;;;;;;;;12.40;99.90;;;;;;5005469;28;19945;-70
2022/11/21 13:12:00;;;;;;;;;;;12.40;99.90;;;;;;5010835;28;19925;-70
2022/11/21 13:14:29;;;;;;;;;;;12.30;99.90;;;;;;5005462;28;19925;-69
2022/11/21 13:17:02;;;;;;;;;;;12.10;99.90;;;;;;4999876;28;19930;-69
2022/11/21 13:19:33;;;;;;;;;;;11.80;99.90;;;;;;5009595;28;19929;-70
2022/11/21 13:22:02;;;;;;;;;;;11.60;99.90;;;;;;5010242;28;19929;-71
2022/11/21 13:24:47;;;;;;;;;;;11.50;99.90;;;;;;5011556;28;20380;-71
2022/11/21 13:27:23;;;;;;;;;;;11.20;99.90;;;;;;5010281;28;19960;-69
2022/11/21 13:30:05;;;;;;;;;;;11.00;99.90;;;;;;5013247;28;19932;-69
2022/11/21 13:32:37;;;;;;;;;;;10.80;99.90;;;;;;5009740;28;19925;-70
2022/11/21 13:35:04;;;;;;;;;;;10.70;99.90;;;;;;5007027;28;19929;-70
2022/11/21 13:37:45;;;;;;;;;;;10.70;99.90;;;;;;5012887;28;20399;-69
2022/11/21 13:40:31;;;;;;;;;;;10.70;99.90;;;;;;5003007;28;19925;-69
2022/11/21 13:43:20;;;;;;;;;;;10.60;99.90;;;;;;5013197;28;19925;-69
2022/11/21 13:45:49;;;;;;;;;;;10.70;99.90;;;;;;4997818;28;19955;-70
2022/11/21 13:48:35;;;;;;;;;;;10.60;99.90;;;;;;5012005;28;19925;-69
2022/11/21 13:51:16;;;;;;;;;;;10.60;99.90;;;;;;4995142;28;19925;-70
2022/11/21 13:53:57;;;;;;;;;;;10.70;99.90;;;;;;5020358;28;19956;-69
2022/11/21 13:56:25;;;;;;;;;;;10.80;99.90;;;;;;5011595;28;19955;-70
2022/11/21 13:58:57;;;;;;;;;;;11.00;99.90;;;;;;5020894;28;20314;-70
2022/11/21 14:01:35;;;;;;;;;;;11.00;99.90;;;;;;5013213;28;19925;-70
2022/11/21 14:04:26;;;;;;;;;;;11.00;99.90;;;;;;5005660;28;19931;-70
2022/11/21 14:06:53;;;;;;;;;;;10.90;99.90;;;;;;5012211;28;20406;-70
2022/11/21 14:09:22;;;;;;;;;;;10.80;99.90;;;;;;5011981;28;19925;-70
2022/11/21 14:11:49;;;;;;;;;;;10.70;99.90;;;;;;5009862;28;19928;-71
2022/11/21 14:14:28;;;;;;;;;;;10.60;99.90;;;;;;5005022;28;19925;-69
2022/11/21 14:16:59;;;;;;;;;;;10.40;99.90;;;;;;5020140;28;19929;-69
2022/11/21 14:19:27;;;;;;;;;;;10.30;99.90;;;;;;5012780;28;20388;-70
2022/11/21 14:21:54;;;;;;;;;;;10.10;99.90;;;;;;5025771;28;19957;-70
2022/11/21 14:24:21;;;;;;;;;;;9.90;99.90;;;;;;5011159;28;19925;-68
2022/11/21 14:26:49;;;;;;;;;;;9.70;99.90;;;;;;5014206;28;19934;-69
2022/11/21 14:29:16;;;;;;;;;;;9.60;99.90;;;;;;5013604;28;19929;-70
2022/11/21 14:31:44;;;;;;;;;;;9.60;99.90;;;;;;5014519;28;19929;-69
2022/11/21 14:34:12;;;;;;;;;;;9.50;99.90;;;;;;5010978;28;19929;-69
2022/11/21 14:36:40;;;;;;;;;;;9.40;99.90;;;;;;5013745;28;19925;-69
2022/11/21 14:39:08;;;;;;;;;;;9.30;99.90;;;;;;5009946;28;19926;-69
2022/11/21 14:41:37;;;;;;;;;;;9.20;99.90;;;;;;5030796;28;19925;-69
2022/11/21 14:44:14;;;;;;;;;;;9.10;99.90;;;;;;5010767;28;19930;-69
2022/11/21 14:46:41;;;;;;;;;;;8.90;99.90;;;;;;5007547;28;19925;-69
2022/11/21 14:49:15;;;;;;;;;;;8.90;99.90;;;;;;5014863;28;19982;-70
2022/11/21 14:51:44;;;;;;;;;;;8.80;99.90;;;;;;5000859;28;19972;-66
2022/11/21 14:54:13;;;;;;;;;;;8.80;99.90;;;;;;5016391;28;19949;-73
2022/11/21 14:56:40;;;;;;;;;;;8.70;99.90;;;;;;5000314;28;19925;-69
2022/11/21 14:59:13;;;;;;;;;;;8.70;99.90;;;;;;5013913;28;19929;-71
2022/11/21 15:01:40;;;;;;;;;;;8.60;99.90;;;;;;5014307;28;19925;-70
2022/11/21 15:04:08;;;;;;;;;;;8.50;99.90;;;;;;5014392;28;19937;-70
2022/11/21 15:06:40;;;;;;;;;;;8.50;99.90;;;;;;5014991;28;19932;-70
2022/11/21 15:09:12;;;;;;;;;;;8.40;99.90;;;;;;5015881;28;19975;-71
2022/11/21 15:11:41;;;;;;;;;;;8.40;99.90;;;;;;5013028;28;19925;-69
2022/11/21 15:14:13;;;;;;;;;;;8.30;99.90;;;;;;5016475;28;19925;-70
2022/11/21 15:16:40;;;;;;;;;;;8.30;99.90;;;;;;5004764;28;19925;-70
2022/11/21 15:19:08;;;;;;;;;;;8.20;99.90;;;;;;5022364;28;19925;-72
2022/11/21 15:21:35;;;;;;;;;;;8.20;99.90;;;;;;5011889;28;19933;-71
2022/11/21 15:24:17;;;;;;;;;;;8.10;99.90;;;;;;5004314;28;19926;-70
2022/11/21 15:26:44;;;;;;;;;;;8.10;99.90;;;;;;5011581;28;19925;-70
2022/11/21 15:29:18;;;;;;;;;;;8.10;99.90;;;;;;5003905;28;19933;-71
2022/11/21 15:31:46;;;;;;;;;;;8.10;99.90;;;;;;5013085;28;20027;-70
2022/11/21 15:34:12;;;;;;;;;;;8.10;99.90;;;;;;5025941;28;20000;-71
2022/11/21 15:36:39;;;;;;;;;;;8.10;99.90;;;;;;5011045;28;19933;-71
2022/11/21 15:39:06;;;;;;;;;;;8.10;99.90;;;;;;5008047;28;20438;-70
2022/11/21 15:41:35;;;;;;;;;;;8.10;99.90;;;;;;5005486;28;19968;-70
2022/11/21 15:44:21;;;;;;;;;;;8.10;99.90;;;;;;5002153;28;19925;-71
2022/11/21 15:46:51;;;;;;;;;;;8.10;99.90;;;;;;5008169;28;19929;-71
2022/11/21 15:49:17;;;;;;;;;;;8.10;99.90;;;;;;5006869;28;19925;-70
2022/11/21 15:51:45;;;;;;;;;;;8.10;99.90;;;;;;5005153;28;20295;-70
2022/11/21 15:54:12;;;;;;;;;;;8.10;99.90;;;;;;5014044;28;19929;-70
2022/11/21 15:56:41;;;;;;;;;;;8.10;99.90;;;;;;5014630;28;19929;-70
2022/11/21 15:59:08;;;;;;;;;;;8.10;99.90;;;;;;5011620;28;19925;-70
2022/11/21 16:01:35;;;;;;;;;;;8.10;99.90;;;;;;5023527;28;19929;-70
2022/11/21 16:04:02;;;;;;;;;;;8.10;99.90;;;;;;5013313;28;19925;-72
2022/11/21 16:06:29;;;;;;;;;;;8.10;99.90;;;;;;5014964;28;19925;-70
2022/11/21 16:08:56;;;;;;;;;;;8.00;99.90;;;;;;5002462;28;19953;-71
2022/11/21 16:11:24;;;;;;;;;;;8.00;99.90;;;;;;5005983;28;19933;-70
2022/11/21 16:13:53;;;;;;;;;;;8.00;99.90;;;;;;5014447;28;19926;-72
2022/11/21 16:16:20;;;;;;;;;;;7.90;99.90;;;;;;5013434;28;19929;-70
2022/11/21 16:18:47;;;;;;;;;;;7.90;99.90;;;;;;5006070;28;19934;-70
2022/11/21 16:21:14;;;;;;;;;;;7.90;99.90;;;;;;5004279;28;19929;-66
2022/11/21 16:23:40;;;;;;;;;;;7.90;99.90;;;;;;5012204;28;19933;-71
2022/11/21 16:26:08;;;;;;;;;;;7.80;99.90;;;;;;5008239;28;19925;-71
2022/11/21 16:28:35;;;;;;;;;;;7.80;99.90;;;;;;5013656;28;19932;-69
2022/11/21 16:31:03;;;;;;;;;;;7.70;99.90;;;;;;5012978;28;19925;-72
2022/11/21 16:33:31;;;;;;;;;;;7.70;99.90;;;;;;5010774;28;20391;-71
2022/11/21 16:35:58;;;;;;;;;;;7.60;99.90;;;;;;5013338;28;19944;-73
2022/11/21 16:38:25;;;;;;;;;;;7.60;99.90;;;;;;5015181;28;19925;-71
2022/11/21 16:40:53;;;;;;;;;;;7.60;99.90;;;;;;5012850;28;19929;-70
2022/11/21 16:43:20;;;;;;;;;;;7.60;99.90;;;;;;5011103;28;19925;-71
2022/11/21 16:45:46;;;;;;;;;;;7.60;99.90;;;;;;5001760;28;19925;-71
2022/11/21 16:48:15;;;;;;;;;;;7.60;99.90;;;;;;5013571;28;19925;-72
2022/11/21 16:50:41;;;;;;;;;;;7.60;99.90;;;;;;5023914;28;19926;-71
2022/11/21 16:53:08;;;;;;;;;;;7.60;99.90;;;;;;5015007;28;19956;-71
2022/11/21 16:55:35;;;;;;;;;;;7.60;99.90;;;;;;5012661;28;19925;-68
2022/11/21 16:58:02;;;;;;;;;;;7.60;99.90;;;;;;5014574;28;19925;-72
2022/11/21 17:00:29;;;;;;;;;;;7.60;99.90;;;;;;5004318;28;19965;-72
2022/11/21 17:02:56;;;;;;;;;;;7.60;99.90;;;;;;5011705;28;19929;-71
2022/11/21 17:05:25;;;;;;;;;;;7.50;99.90;;;;;;5012987;28;19944;-72
2022/11/21 17:07:52;;;;;;;;;;;7.50;99.90;;;;;;5012104;28;20366;-70
2022/11/21 17:10:19;;;;;;;;;;;7.50;99.90;;;;;;5013622;28;19951;-71
2022/11/21 17:12:46;;;;;;;;;;;7.40;99.90;;;;;;5003972;28;19929;-71
2022/11/21 17:15:13;;;;;;;;;;;7.50;99.90;;;;;;5007675;28;19925;-71
2022/11/21 17:17:40;;;;;;;;;;;7.40;99.90;;;;;;5009051;28;19925;-70
2022/11/21 17:20:08;;;;;;;;;;;7.40;99.90;;;;;;5014230;28;19925;-71
2022/11/21 17:22:37;;;;;;;;;;;7.50;99.90;;;;;;5014428;28;19925;-71
2022/11/21 17:25:04;;;;;;;;;;;7.50;99.90;;;;;;5013859;28;19929;-71
2022/11/21 17:27:30;;;;;;;;;;;7.50;99.90;;;;;;5008020;28;19932;-70
2022/11/21 17:29:57;;;;;;;;;;;7.50;99.90;;;;;;5010415;28;19997;-72
2022/11/21 17:32:24;;;;;;;;;;;7.50;99.90;;;;;;5012085;28;19925;-71
2022/11/21 17:34:51;;;;;;;;;;;7.50;99.90;;;;;;5006136;28;19929;-72
2022/11/21 17:37:17;;;;;;;;;;;7.40;99.90;;;;;;5013700;28;19925;-72
2022/11/21 17:39:46;;;;;;;;;;;7.50;99.90;;;;;;5004672;28;19929;-72
2022/11/21 17:42:12;;;;;;;;;;;7.50;99.90;;;;;;5001355;28;20396;-72
2022/11/21 17:44:39;;;;;;;;;;;7.50;99.90;;;;;;5008291;28;20343;-71
2022/11/21 17:47:06;;;;;;;;;;;7.50;99.90;;;;;;5009376;28;19929;-69
2022/11/21 17:49:35;;;;;;;;;;;7.60;99.90;;;;;;5010908;28;19975;-69
2022/11/21 17:52:03;;;;;;;;;;;7.60;99.90;;;;;;5008962;28;19925;-70
2022/11/21 17:54:30;;;;;;;;;;;7.60;99.90;;;;;;5011541;28;19986;-70
2022/11/21 17:56:58;;;;;;;;;;;7.70;99.90;;;;;;5010515;28;19952;-71
2022/11/21 17:59:26;;;;;;;;;;;7.70;99.90;;;;;;5004218;28;19925;-72
2022/11/21 18:01:53;;;;;;;;;;;7.70;99.90;;;;;;5019505;28;19926;-73
2022/11/21 18:04:20;;;;;;;;;;;7.70;99.90;;;;;;5009761;28;19940;-71
2022/11/21 18:06:47;;;;;;;;;;;7.70;99.90;;;;;;5010361;28;19933;-72
2022/11/21 18:09:14;;;;;;;;;;;7.80;99.90;;;;;;5012704;28;19925;-72
2022/11/21 18:11:42;;;;;;;;;;;7.70;99.90;;;;;;5006171;28;20198;-69
2022/11/21 18:14:12;;;;;;;;;;;7.70;99.90;;;;;;5009326;28;20180;-67
2022/11/21 18:16:40;;;;;;;;;;;7.70;99.90;;;;;;5027583;28;19925;-71
2022/11/21 18:19:07;;;;;;;;;;;7.70;99.90;;;;;;5012526;28;19929;-70
2022/11/21 18:21:35;;;;;;;;;;;7.70;99.90;;;;;;5019636;28;20376;-67
2022/11/21 18:24:02;;;;;;;;;;;7.60;99.90;;;;;;5006286;28;19964;-72
2022/11/21 18:26:30;;;;;;;;;;;7.60;99.90;;;;;;5015846;28;19925;-71
2022/11/21 18:28:57;;;;;;;;;;;7.60;99.90;;;;;;5013660;28;19929;-71
2022/11/21 18:31:26;;;;;;;;;;;7.60;99.90;;;;;;5009272;28;19925;-68
2022/11/21 18:33:54;;;;;;;;;;;7.60;99.90;;;;;;5012912;28;19933;-68
2022/11/21 18:36:21;;;;;;;;;;;7.60;99.90;;;;;;5012742;28;19936;-70
2022/11/21 18:38:48;;;;;;;;;;;7.50;99.90;;;;;;5010877;28;19961;-71
2022/11/21 18:41:15;;;;;;;;;;;7.50;99.90;;;;;;5012974;28;20351;-70
2022/11/21 18:43:43;;;;;;;;;;;7.50;99.90;;;;;;5006387;28;19925;-70
2022/11/21 18:46:10;;;;;;;;;;;7.50;99.90;;;;;;5012807;28;19955;-71
2022/11/21 18:48:39;;;;;;;;;;;7.50;99.90;;;;;;5004428;28;19933;-71
2022/11/21 18:51:07;;;;;;;;;;;7.50;99.90;;;;;;5012182;28;19925;-71
2022/11/21 18:53:34;;;;;;;;;;;7.50;99.90;;;;;;5010943;28;19933;-74
2022/11/21 18:56:03;;;;;;;;;;;7.50;99.90;;;;;;5013253;28;19932;-71
2022/11/21 18:58:32;;;;;;;;;;;7.50;99.90;;;;;;5005649;28;19925;-72
2022/11/21 19:00:59;;;;;;;;;;;7.60;99.90;;;;;;5010667;28;20027;-71
2022/11/21 19:03:26;;;;;;;;;;;7.50;99.90;;;;;;5012692;28;19925;-71
2022/11/21 19:05:55;;;;;;;;;;;7.50;99.90;;;;;;5001348;28;19925;-71
2022/11/21 19:08:21;;;;;;;;;;;7.50;99.90;;;;;;5012721;28;20016;-71